Time;durP1;ratioP1;P1;durP2;ratioP2;P2;SDS_P1;SDS_P2;PMS_P1;PMS_P2;Temp;Humidity;BMP_temperature;BMP_pressure;BME280_temperature;BME280_humidity;BME280_pressure;Samples;Min_cycle;Max_cycle;Signal;HPM_P1;HPM_P2
2022/11/06 05:05:26;;;;;;;4.85;2.03;;;3.70;99.90;;;;;;4873262;28;87723;-73
2022/11/06 05:07:51;;;;;;;5.50;2.47;;;3.70;99.90;;;;;;4880264;28;88418;-73
2022/11/06 05:10:17;;;;;;;4.88;2.15;;;3.70;99.90;;;;;;4880336;28;86780;-73
2022/11/06 05:12:42;;;;;;;5.40;2.38;;;3.60;99.90;;;;;;4880940;28;86615;-73
2022/11/06 05:15:08;;;;;;;5.07;2.42;;;3.60;99.90;;;;;;4881423;28;86181;-72
2022/11/06 05:17:34;;;;;;;6.20;2.90;;;3.60;99.90;;;;;;4885692;28;87164;-71
2022/11/06 05:20:00;;;;;;;5.57;2.75;;;3.60;99.90;;;;;;4880860;28;86874;-72
2022/11/06 05:25:09;;;;;;;6.05;3.00;;;3.60;99.90;;;;;;4879120;28;86550;-74
2022/11/06 05:27:35;;;;;;;6.97;2.80;;;3.50;99.90;;;;;;4879195;28;87283;-72
2022/11/06 05:30:01;;;;;;;5.15;2.30;;;3.50;99.90;;;;;;4878601;28;86651;-73
2022/11/06 05:32:26;;;;;;;8.13;3.22;;;3.50;99.90;;;;;;4880694;28;86246;-73
2022/11/06 05:34:52;;;;;;;7.72;3.45;;;3.50;99.90;;;;;;4881300;28;86593;-73
2022/11/06 05:37:18;;;;;;;6.82;2.85;;;3.50;99.90;;;;;;4879185;28;87267;-73
2022/11/06 05:39:43;;;;;;;6.68;3.30;;;3.50;99.90;;;;;;4880568;28;86938;-73
2022/11/06 05:42:09;;;;;;;8.52;4.05;;;3.50;99.90;;;;;;4881542;28;86802;-74
2022/11/06 05:44:34;;;;;;;6.68;3.47;;;3.50;99.90;;;;;;4878622;28;87131;-74
2022/11/06 05:47:00;;;;;;;8.20;3.90;;;3.50;99.90;;;;;;4872251;28;87507;-73
2022/11/06 05:49:26;;;;;;;8.40;4.22;;;3.40;99.90;;;;;;4884287;28;88096;-73
2022/11/06 05:51:51;;;;;;;7.90;4.20;;;3.40;99.90;;;;;;4883642;28;86178;-72
2022/11/06 05:54:17;;;;;;;6.32;3.05;;;3.40;99.90;;;;;;4892635;28;87767;-73
2022/11/06 05:56:43;;;;;;;8.25;3.50;;;3.40;99.90;;;;;;4881552;28;87199;-73
2022/11/06 05:59:08;;;;;;;7.55;3.33;;;3.40;99.90;;;;;;4875130;28;87138;-73
2022/11/06 06:01:34;;;;;;;8.32;3.72;;;3.40;99.90;;;;;;4882734;28;86762;-72
2022/11/06 06:04:00;;;;;;;8.32;4.03;;;3.40;99.90;;;;;;4882694;28;86138;-73
2022/11/06 06:06:26;;;;;;;7.75;3.78;;;3.40;99.90;;;;;;4878138;28;87351;-73
2022/11/06 06:08:51;;;;;;;5.95;3.17;;;3.30;99.90;;;;;;4881602;28;86369;-73
2022/11/06 06:11:17;;;;;;;7.22;3.60;;;3.30;99.90;;;;;;4884233;28;87875;-72
2022/11/06 06:13:43;;;;;;;9.55;3.92;;;3.30;99.90;;;;;;4883768;28;86330;-72
2022/11/06 06:16:08;;;;;;;8.45;3.55;;;3.20;99.90;;;;;;4879989;28;87286;-72
2022/11/06 06:18:34;;;;;;;8.25;3.50;;;3.30;99.90;;;;;;4876959;28;87192;-73
2022/11/06 06:21:00;;;;;;;6.72;3.42;;;3.30;99.90;;;;;;4881072;28;86433;-73
2022/11/06 06:23:25;;;;;;;6.85;3.05;;;3.30;99.90;;;;;;4877551;28;86335;-72
2022/11/06 06:25:51;;;;;;;5.85;2.70;;;3.30;99.90;;;;;;4878570;28;87215;-72
2022/11/06 06:28:17;;;;;;;6.53;2.85;;;3.30;99.90;;;;;;4874701;28;87000;-73
2022/11/06 06:30:42;;;;;;;6.47;2.78;;;3.40;99.90;;;;;;4877324;28;87167;-73
2022/11/06 06:33:09;;;;;;;6.93;2.72;;;3.40;99.90;;;;;;4880208;28;86762;-73
2022/11/06 06:35:34;;;;;;;7.55;2.85;;;3.40;99.90;;;;;;4872039;28;87734;-72
2022/11/06 06:38:00;;;;;;;5.82;2.63;;;3.50;99.90;;;;;;4876637;28;86961;-72
2022/11/06 06:40:26;;;;;;;7.28;2.85;;;3.60;99.90;;;;;;4875575;28;87059;-73
2022/11/06 06:42:56;;;;;;;7.32;2.75;;;3.60;99.90;;;;;;4878256;28;88454;-73
2022/11/06 06:45:22;;;;;;;5.22;2.70;;;3.60;99.90;;;;;;4877914;28;87875;-73
2022/11/06 06:47:48;;;;;;;6.28;2.45;;;3.70;99.90;;;;;;4884294;28;88383;-73
2022/11/06 06:50:13;;;;;;;5.97;2.97;;;3.90;99.90;;;;;;4878638;28;86961;-72
2022/11/06 06:52:39;;;;;;;4.80;2.25;;;4.20;99.90;;;;;;4879515;28;86201;-72
2022/11/06 06:55:05;;;;;;;4.70;1.92;;;5.70;99.90;;;;;;4878059;28;86791;-74
2022/11/06 06:57:31;;;;;;;4.72;1.90;;;7.20;99.90;;;;;;4878541;28;86379;-74
2022/11/06 06:59:56;;;;;;;5.03;2.15;;;8.20;95.70;;;;;;4875394;28;87187;-71
2022/11/06 07:02:22;;;;;;;3.90;1.98;;;8.70;91.30;;;;;;4874614;28;86809;-73
2022/11/06 07:04:48;;;;;;;4.47;1.58;;;9.10;89.90;;;;;;4871726;28;87193;-73
2022/11/06 07:07:13;;;;;;;3.28;1.70;;;9.90;85.90;;;;;;4871746;28;86702;-73
2022/11/06 07:09:39;;;;;;;3.72;1.95;;;10.30;84.70;;;;;;4877837;28;87108;-73
2022/11/06 07:12:05;;;;;;;3.13;1.33;;;10.80;81.10;;;;;;4877321;28;86802;-73
2022/11/06 07:14:30;;;;;;;3.97;1.48;;;10.80;79.10;;;;;;4878652;28;87012;-73
2022/11/06 07:16:56;;;;;;;3.10;1.20;;;11.70;79.70;;;;;;4876266;28;86199;-71
2022/11/06 07:19:22;;;;;;;3.40;1.30;;;13.20;72.80;;;;;;4874207;28;86701;-71
2022/11/06 07:21:51;;;;;;;2.63;1.30;;;13.80;69.80;;;;;;4874498;28;87070;-74
2022/11/06 07:24:17;;;;;;;1.73;0.73;;;14.00;68.40;;;;;;4875550;28;87668;-71
2022/11/06 07:26:43;;;;;;;2.00;0.80;;;14.30;65.80;;;;;;4878340;28;87906;-74
2022/11/06 07:29:09;;;;;;;1.75;0.73;;;14.40;64.90;;;;;;4873877;28;87290;-71
2022/11/06 07:31:34;;;;;;;2.72;1.20;;;14.40;64.50;;;;;;4876472;28;86785;-72
2022/11/06 07:34:00;;;;;;;1.60;0.70;;;14.80;64.40;;;;;;4877232;28;87838;-71
2022/11/06 07:36:25;;;;;;;1.70;0.82;;;14.80;62.30;;;;;;4877053;28;86676;-74
2022/11/06 07:38:51;;;;;;;1.70;0.60;;;14.90;63.00;;;;;;4877572;28;86855;-74
2022/11/06 07:41:17;;;;;;;1.55;0.60;;;14.50;62.90;;;;;;4881666;28;85690;-71
2022/11/06 07:43:43;;;;;;;2.67;0.50;;;14.50;62.50;;;;;;4868820;28;86811;-74
2022/11/06 07:46:11;;;;;;;1.58;0.57;;;15.10;63.50;;;;;;4877287;28;87064;-74
2022/11/06 07:48:38;;;;;;;4.00;0.75;;;15.10;61.80;;;;;;4880772;28;87553;-73
2022/11/06 07:51:06;;;;;;;1.92;0.80;;;14.60;63.00;;;;;;4880306;28;87983;-73
2022/11/06 07:53:32;;;;;;;1.85;0.60;;;13.80;64.70;;;;;;4881582;28;87246;-73
2022/11/06 07:55:58;;;;;;;1.83;0.63;;;13.50;66.90;;;;;;4881418;28;87138;-72
2022/11/06 07:58:24;;;;;;;2.00;0.35;;;13.20;66.70;;;;;;4881611;28;87013;-73
2022/11/06 08:00:55;;;;;;;1.77;0.60;;;13.20;66.30;;;;;;4879663;28;86357;-73
2022/11/06 08:03:22;;;;;;;2.20;0.45;;;13.10;67.10;;;;;;4880361;28;86794;-73
2022/11/06 08:05:48;;;;;;;1.52;0.50;;;13.30;67.20;;;;;;4877158;28;86856;-73
2022/11/06 08:08:14;;;;;;;1.85;0.60;;;13.90;66.90;;;;;;4878356;28;86346;-73
2022/11/06 08:10:42;;;;;;;1.30;0.50;;;15.80;62.60;;;;;;4880421;28;86292;-73
2022/11/06 08:13:09;;;;;;;1.50;0.60;;;17.60;57.00;;;;;;4879294;28;88957;-74
2022/11/06 08:15:37;;;;;;;1.60;0.90;;;19.20;54.70;;;;;;4881008;28;88329;-73
2022/11/06 08:18:03;;;;;;;2.97;0.77;;;20.00;52.70;;;;;;4881688;28;87061;-73
2022/11/06 08:20:29;;;;;;;4.13;0.93;;;20.20;51.50;;;;;;4879653;28;86909;-74
2022/11/06 08:23:02;;;;;;;2.35;0.95;;;20.90;47.90;;;;;;4880119;28;87475;-74
2022/11/06 08:25:29;;;;;;;1.52;0.80;;;22.00;47.30;;;;;;4880998;28;89567;-73
2022/11/06 08:27:56;;;;;;;1.35;0.70;;;22.00;45.30;;;;;;4881109;28;86277;-73
2022/11/06 08:30:22;;;;;;;2.13;0.73;;;22.60;46.30;;;;;;4880917;28;85720;-73
2022/11/06 08:32:48;;;;;;;2.00;0.52;;;23.50;46.00;;;;;;4879595;28;87247;-73
2022/11/06 08:35:14;;;;;;;1.80;1.15;;;23.80;44.00;;;;;;4879951;28;86768;-73
2022/11/06 08:37:39;;;;;;;2.25;0.50;;;23.60;42.40;;;;;;4880538;28;87243;-73
2022/11/06 08:40:06;;;;;;;1.67;0.38;;;23.80;43.50;;;;;;4880665;28;86722;-73
2022/11/06 08:42:32;;;;;;;1.10;0.50;;;22.90;43.60;;;;;;4880170;28;86733;-73
2022/11/06 08:44:57;;;;;;;1.25;0.40;;;21.60;44.80;;;;;;4880613;28;88281;-73
2022/11/06 08:47:23;;;;;;;0.95;0.38;;;20.50;46.10;;;;;;4881275;28;86810;-73
2022/11/06 08:49:49;;;;;;;1.65;0.52;;;19.50;47.60;;;;;;4878265;28;86310;-73
2022/11/06 08:52:14;;;;;;;3.55;0.60;;;18.70;48.30;;;;;;4879031;28;86930;-73
2022/11/06 08:54:40;;;;;;;1.05;0.32;;;18.70;50.60;;;;;;4881499;28;86825;-73
2022/11/06 08:57:06;;;;;;;1.33;0.30;;;18.60;48.60;;;;;;4880585;28;87001;-73
2022/11/06 08:59:32;;;;;;;1.42;0.40;;;18.30;49.70;;;;;;4879809;28;86224;-73
2022/11/06 09:01:58;;;;;;;1.27;0.50;;;18.00;51.40;;;;;;4879598;28;88095;-73
2022/11/06 09:04:23;;;;;;;1.20;0.40;;;17.10;52.50;;;;;;4878718;28;87791;-72
2022/11/06 09:06:49;;;;;;;3.00;0.73;;;16.60;54.90;;;;;;4880985;28;86784;-73
2022/11/06 09:09:15;;;;;;;2.13;0.40;;;16.40;56.10;;;;;;4878882;28;86349;-72
2022/11/06 09:11:40;;;;;;;2.53;0.50;;;15.70;56.70;;;;;;4879355;28;87179;-72
2022/11/06 09:14:06;;;;;;;1.00;0.32;;;15.30;59.10;;;;;;4880091;28;88463;-72
2022/11/06 09:16:32;;;;;;;1.90;0.38;;;15.10;58.40;;;;;;4880491;28;87557;-74
2022/11/06 09:18:57;;;;;;;1.88;0.30;;;15.20;59.50;;;;;;4880197;28;87454;-74
2022/11/06 09:21:23;;;;;;;1.83;0.40;;;15.50;58.80;;;;;;4879869;28;87288;-74
2022/11/06 09:23:49;;;;;;;1.80;0.40;;;15.60;58.00;;;;;;4879238;28;86294;-72
2022/11/06 09:26:15;;;;;;;2.78;0.32;;;15.30;60.20;;;;;;4880038;28;87926;-73
2022/11/06 09:28:41;;;;;;;3.22;0.70;;;15.40;58.00;;;;;;4880048;28;87206;-74
2022/11/06 09:31:08;;;;;;;1.02;0.30;;;15.80;57.10;;;;;;4879290;28;86899;-74
2022/11/06 09:33:34;;;;;;;1.00;0.30;;;16.70;55.70;;;;;;4879769;28;86805;-74
2022/11/06 09:36:03;;;;;;;1.45;0.47;;;18.10;54.40;;;;;;4880336;28;86762;-74
2022/11/06 09:38:29;;;;;;;1.20;0.60;;;18.70;51.70;;;;;;4879797;28;86758;-72
2022/11/06 09:41:00;;;;;;;1.52;0.63;;;19.30;52.90;;;;;;4878096;28;87207;-74
2022/11/06 09:43:40;;;;;;;1.50;0.50;;;19.20;50.40;;;;;;4879800;28;87178;-74
2022/11/06 09:46:26;;;;;;;2.97;0.43;;;18.80;52.00;;;;;;4878217;28;87015;-74
2022/11/06 09:49:04;;;;;;;1.42;0.40;;;18.30;53.00;;;;;;4878946;28;86228;-74
2022/11/06 09:51:38;;;;;;;0.93;0.40;;;19.00;50.60;;;;;;4878935;28;87777;-74
2022/11/06 09:54:45;;;;;;;1.45;0.50;;;20.10;49.30;;;;;;4879297;28;87312;-74
2022/11/06 09:57:34;;;;;;;1.42;0.65;;;21.50;46.90;;;;;;4803011;29;86446;-74
2022/11/06 10:00:01;;;;;;;2.28;0.47;;;23.40;44.50;;;;;;4802039;29;86387;-74
2022/11/06 10:02:56;;;;;;;2.70;0.57;;;24.00;43.70;;;;;;4839526;28;87440;-74
2022/11/06 10:05:35;;;;;;;1.88;0.63;;;24.50;40.70;;;;;;4875676;28;86707;-74
2022/11/06 10:08:05;;;;;;;1.65;0.70;;;24.60;41.50;;;;;;4873828;28;86365;-74
2022/11/06 10:11:01;;;;;;;4.57;2.08;;;24.50;42.60;;;;;;4879436;28;85863;-74
2022/11/06 10:13:35;;;;;;;3.47;2.40;;;23.40;44.60;;;;;;4849498;28;87296;-73
2022/11/06 10:16:19;;;;;;;4.15;2.75;;;22.20;46.60;;;;;;4871306;28;88951;-74
2022/11/06 10:19:06;;;;;;;6.03;2.95;;;21.10;48.30;;;;;;4878325;28;87461;-74
2022/11/06 10:21:46;;;;;;;3.75;2.28;;;19.40;51.50;;;;;;4879531;28;86290;-74
2022/11/06 10:24:22;;;;;;;3.63;2.65;;;18.40;54.10;;;;;;4872275;28;87359;-74
2022/11/06 10:26:53;;;;;;;4.32;2.85;;;17.50;56.80;;;;;;4878107;28;87477;-73
2022/11/06 10:29:42;;;;;;;4.18;2.67;;;16.90;57.70;;;;;;4879661;28;86839;-73
2022/11/06 10:32:11;;;;;;;4.75;2.33;;;16.30;59.30;;;;;;4879656;28;86932;-74
2022/11/06 10:34:49;;;;;;;5.82;2.90;;;15.90;60.50;;;;;;4878833;28;87181;-73
2022/11/06 10:37:25;;;;;;;4.35;2.55;;;15.40;61.60;;;;;;4876945;28;86325;-73
2022/11/06 10:39:52;;;;;;;3.83;2.15;;;15.00;64.30;;;;;;4878895;28;86673;-73
2022/11/06 10:42:22;;;;;;;4.50;2.83;;;14.70;64.10;;;;;;4880954;28;86264;-73
2022/11/06 10:45:04;;;;;;;3.78;2.20;;;14.40;65.00;;;;;;4875644;28;88304;-73
2022/11/06 10:47:38;;;;;;;3.78;2.25;;;14.20;66.20;;;;;;4876983;28;87836;-74
2022/11/06 10:50:10;;;;;;;3.95;2.00;;;14.10;67.50;;;;;;4878741;28;86993;-73
2022/11/06 10:53:16;;;;;;;5.05;3.20;;;13.90;67.60;;;;;;4875445;28;86837;-73
2022/11/06 10:55:54;;;;;;;4.00;2.22;;;13.60;68.10;;;;;;4841715;28;86817;-74
2022/11/06 10:58:28;;;;;;;4.25;2.42;;;13.50;67.90;;;;;;4874276;28;87042;-74
2022/11/06 11:01:08;;;;;;;4.03;2.17;;;13.50;68.60;;;;;;4878050;28;86987;-73
2022/11/06 11:03:35;;;;;;;3.92;2.10;;;13.40;68.60;;;;;;4886022;28;85942;-73
2022/11/06 11:06:03;;;;;;;4.45;2.30;;;13.50;67.80;;;;;;4879070;28;86609;-73
2022/11/06 11:08:40;;;;;;;4.47;2.00;;;13.50;69.10;;;;;;4877911;28;87383;-73
2022/11/06 11:11:12;;;;;;;5.63;2.30;;;13.30;69.20;;;;;;4876659;28;87148;-73
2022/11/06 11:13:42;;;;;;;5.03;1.70;;;13.30;68.70;;;;;;4879653;28;87544;-71
2022/11/06 11:16:17;;;;;;;3.60;2.08;;;13.40;69.10;;;;;;4881495;28;86917;-72
2022/11/06 11:18:44;;;;;;;3.78;2.42;;;13.50;69.40;;;;;;4881216;28;87004;-74
2022/11/06 11:21:15;;;;;;;3.15;1.77;;;13.40;69.40;;;;;;4881127;28;87080;-74
2022/11/06 11:23:41;;;;;;;5.03;2.33;;;13.40;69.70;;;;;;4891453;28;86570;-74
2022/11/06 11:26:12;;;;;;;3.40;1.90;;;13.30;70.20;;;;;;4878215;28;88746;-72
2022/11/06 11:28:40;;;;;;;3.88;1.88;;;13.20;70.70;;;;;;4880871;28;87598;-74
2022/11/06 11:31:16;;;;;;;3.88;1.88;;;13.10;71.60;;;;;;4876058;28;86895;-72
2022/11/06 11:33:54;;;;;;;3.65;1.90;;;13.10;72.30;;;;;;4873000;28;86779;-71
2022/11/06 11:36:20;;;;;;;6.95;2.50;;;13.00;72.40;;;;;;4880520;28;88032;-72
2022/11/06 11:38:46;;;;;;;3.50;1.92;;;12.80;72.70;;;;;;4883503;28;87179;-73
2022/11/06 11:41:17;;;;;;;5.25;2.58;;;12.70;73.10;;;;;;4881600;28;87536;-73
2022/11/06 11:43:54;;;;;;;4.28;2.53;;;12.60;73.30;;;;;;4878415;28;86281;-73
2022/11/06 11:46:20;;;;;;;5.38;2.08;;;12.60;73.90;;;;;;4878665;28;86745;-74
2022/11/06 11:48:50;;;;;;;5.63;1.92;;;12.40;73.80;;;;;;4873369;28;86313;-73
2022/11/06 11:51:37;;;;;;;4.07;2.20;;;12.30;75.00;;;;;;4875085;28;86446;-74
2022/11/06 11:54:08;;;;;;;4.68;2.65;;;12.20;75.80;;;;;;4880247;28;86033;-74
2022/11/06 11:56:51;;;;;;;4.60;1.98;;;12.10;76.10;;;;;;4879024;28;86752;-73
2022/11/06 11:59:28;;;;;;;4.75;2.25;;;12.10;75.20;;;;;;4877234;28;86470;-74
2022/11/06 12:01:56;;;;;;;4.45;2.00;;;12.00;76.00;;;;;;4878467;28;87312;-74
2022/11/06 12:04:31;;;;;;;4.82;2.28;;;12.00;76.50;;;;;;4878553;28;86543;-73
2022/11/06 12:07:03;;;;;;;4.63;2.78;;;12.00;76.20;;;;;;4885330;28;86946;-74
2022/11/06 12:09:39;;;;;;;4.13;2.28;;;12.10;76.20;;;;;;4878700;28;86947;-73
2022/11/06 12:12:05;;;;;;;4.25;2.17;;;12.10;76.10;;;;;;4879383;28;86623;-73
2022/11/06 12:14:34;;;;;;;4.57;2.40;;;12.20;75.30;;;;;;4884909;28;87115;-73
2022/11/06 12:17:09;;;;;;;3.70;1.98;;;12.30;75.50;;;;;;4887647;28;87172;-74
2022/11/06 12:19:37;;;;;;;4.88;2.22;;;12.30;74.80;;;;;;4871744;28;86827;-73
2022/11/06 12:22:16;;;;;;;3.92;2.13;;;12.20;76.10;;;;;;4868305;28;87101;-74
2022/11/06 12:24:52;;;;;;;4.03;2.40;;;12.00;76.10;;;;;;4878438;28;86265;-72
2022/11/06 12:27:41;;;;;;;5.00;2.58;;;12.00;76.30;;;;;;4876529;28;88469;-73
2022/11/06 12:30:16;;;;;;;4.32;2.40;;;12.10;76.50;;;;;;4878052;28;88075;-73
2022/11/06 12:33:21;;;;;;;4.75;2.50;;;12.00;76.60;;;;;;4879167;28;86671;-72
2022/11/06 12:35:54;;;;;;;4.50;2.47;;;11.90;75.90;;;;;;4864849;28;86430;-73
2022/11/06 12:38:39;;;;;;;4.65;2.38;;;11.80;76.10;;;;;;4876302;28;86764;-73
2022/11/06 12:41:05;;;;;;;4.32;2.33;;;11.60;76.80;;;;;;4880139;28;86847;-72
2022/11/06 12:43:46;;;;;;;3.75;1.70;;;11.70;76.60;;;;;;4877955;28;86711;-72
2022/11/06 12:46:50;;;;;;;4.32;1.95;;;11.80;76.60;;;;;;4879732;28;86141;-73
2022/11/06 12:49:34;;;;;;;4.10;1.88;;;11.80;76.40;;;;;;4863847;28;88415;-72
2022/11/06 12:52:14;;;;;;;3.72;1.95;;;11.80;77.80;;;;;;4877671;28;87668;-73
2022/11/06 12:55:15;;;;;;;4.30;2.25;;;11.80;78.00;;;;;;4875034;28;87269;-72
2022/11/06 12:57:40;;;;;;;3.55;1.85;;;11.60;77.00;;;;;;4878111;28;86684;-73
2022/11/06 13:00:23;;;;;;;4.10;2.15;;;11.60;77.40;;;;;;4881904;28;87146;-73
2022/11/06 13:03:27;;;;;;;4.20;2.10;;;11.50;77.80;;;;;;4875702;28;87483;-74
2022/11/06 13:06:17;;;;;;;5.13;2.00;;;11.50;78.60;;;;;;4822815;29;86480;-73
2022/11/06 13:08:54;;;;;;;3.47;1.80;;;11.50;78.60;;;;;;4880573;28;86788;-73
2022/11/06 13:11:35;;;;;;;3.30;1.90;;;11.50;78.10;;;;;;4875286;28;86573;-73
2022/11/06 13:14:19;;;;;;;3.97;2.10;;;11.40;79.40;;;;;;4883160;28;86980;-74
2022/11/06 13:17:24;;;;;;;4.03;2.03;;;11.40;79.50;;;;;;4887274;28;86462;-73
2022/11/06 13:20:15;;;;;;;3.80;2.20;;;11.40;79.40;;;;;;4882171;28;88975;-73
2022/11/06 13:22:58;;;;;;;5.25;2.08;;;11.40;79.90;;;;;;4872714;28;88259;-74
2022/11/06 13:25:51;;;;;;;3.83;2.03;;;11.40;79.70;;;;;;4876263;28;87373;-74
2022/11/06 13:28:30;;;;;;;4.07;2.20;;;11.30;79.80;;;;;;4874440;28;86402;-72
2022/11/06 13:30:57;;;;;;;5.45;2.50;;;11.30;80.20;;;;;;4876154;28;86685;-72
2022/11/06 13:33:31;;;;;;;4.50;2.53;;;11.20;79.70;;;;;;4879327;28;87056;-72
2022/11/06 13:35:59;;;;;;;4.80;2.72;;;11.30;79.80;;;;;;4878415;28;87065;-73
2022/11/06 13:38:28;;;;;;;5.13;2.40;;;11.30;80.80;;;;;;4878889;28;86314;-74
2022/11/06 13:41:02;;;;;;;4.65;2.63;;;11.40;80.60;;;;;;4881340;28;85999;-72
2022/11/06 13:43:30;;;;;;;5.43;2.60;;;11.50;79.90;;;;;;4876454;28;88073;-72
2022/11/06 13:46:33;;;;;;;4.15;2.33;;;11.50;79.70;;;;;;4881324;28;86784;-74
2022/11/06 13:49:07;;;;;;;4.70;2.17;;;11.60;79.30;;;;;;4876090;28;87705;-73
2022/11/06 13:51:50;;;;;;;4.47;2.22;;;11.70;79.10;;;;;;4879265;28;86290;-74
2022/11/06 13:54:38;;;;;;;3.78;2.30;;;11.70;78.70;;;;;;4884706;28;87186;-74
2022/11/06 13:57:17;;;;;;;5.50;2.55;;;11.70;78.70;;;;;;4869279;28;86772;-74
2022/11/06 14:00:02;;;;;;;4.30;2.25;;;11.60;78.50;;;;;;4881213;28;86896;-74
2022/11/06 14:02:39;;;;;;;5.15;2.63;;;11.60;79.00;;;;;;4878899;28;87074;-73
2022/11/06 14:05:39;;;;;;;3.83;2.13;;;11.60;79.00;;;;;;4870030;28;87220;-74
2022/11/06 14:08:10;;;;;;;4.65;2.38;;;11.50;79.40;;;;;;4870914;28;87270;-73
2022/11/06 14:10:45;;;;;;;4.72;2.20;;;11.50;79.80;;;;;;4879714;28;86737;-73
2022/11/06 14:13:14;;;;;;;4.05;2.28;;;11.50;80.00;;;;;;4881134;28;87972;-74
2022/11/06 14:15:41;;;;;;;5.63;2.20;;;11.40;80.50;;;;;;4878477;28;87720;-73
2022/11/06 14:18:21;;;;;;;6.03;2.20;;;11.40;79.80;;;;;;4878209;28;87919;-74
2022/11/06 14:20:47;;;;;;;4.18;1.80;;;11.40;80.20;;;;;;4878525;28;86320;-73
2022/11/06 14:23:27;;;;;;;4.88;2.33;;;11.30;80.10;;;;;;4883349;28;88288;-73
2022/11/06 14:25:58;;;;;;;6.45;2.33;;;11.20;80.80;;;;;;4878940;28;87760;-74
2022/11/06 14:28:37;;;;;;;4.57;2.20;;;11.20;81.30;;;;;;4878375;28;86899;-73
2022/11/06 14:31:03;;;;;;;4.65;2.45;;;11.10;81.60;;;;;;4880261;28;86763;-73
2022/11/06 14:33:40;;;;;;;4.68;2.40;;;11.10;81.90;;;;;;4879029;28;85953;-74
2022/11/06 14:36:22;;;;;;;4.05;2.13;;;11.10;82.10;;;;;;4886072;28;87712;-74
2022/11/06 14:38:49;;;;;;;5.07;2.25;;;11.00;82.30;;;;;;4872643;28;86980;-74
2022/11/06 14:41:33;;;;;;;5.03;3.00;;;11.00;82.90;;;;;;4878371;28;88068;-74
2022/11/06 14:44:15;;;;;;;7.60;2.55;;;11.00;83.30;;;;;;4879075;28;86348;-74
2022/11/06 14:46:54;;;;;;;5.60;3.65;;;10.90;83.40;;;;;;4878630;28;87134;-74
2022/11/06 14:49:40;;;;;;;4.22;2.13;;;10.90;83.20;;;;;;4890435;28;87040;-73
2022/11/06 14:52:11;;;;;;;5.63;2.40;;;10.90;83.10;;;;;;4881822;28;86862;-74
2022/11/06 14:54:40;;;;;;;4.32;2.15;;;10.90;83.00;;;;;;4881426;28;86596;-74
2022/11/06 14:57:12;;;;;;;3.03;1.73;;;10.90;83.00;;;;;;4882209;28;86505;-74
2022/11/06 14:59:39;;;;;;;3.80;2.40;;;10.90;82.80;;;;;;4884194;28;86402;-73
2022/11/06 15:02:20;;;;;;;3.92;2.15;;;10.90;83.10;;;;;;4886294;28;87060;-74
2022/11/06 15:04:55;;;;;;;3.65;1.95;;;10.90;82.90;;;;;;4887358;28;88399;-74
2022/11/06 15:07:33;;;;;;;3.70;1.95;;;10.80;82.80;;;;;;4873866;28;87691;-74
2022/11/06 15:09:59;;;;;;;4.15;2.25;;;10.80;83.10;;;;;;4872207;28;87408;-74
2022/11/06 15:13:05;;;;;;;6.35;2.33;;;10.80;83.80;;;;;;4881283;28;86181;-74
2022/11/06 15:15:33;;;;;;;4.50;2.47;;;10.80;83.30;;;;;;4882290;28;87755;-73
2022/11/06 15:18:00;;;;;;;6.30;2.88;;;10.80;83.20;;;;;;4886240;28;86953;-74
2022/11/06 15:20:30;;;;;;;8.27;3.05;;;10.80;82.80;;;;;;4883532;28;86914;-74
2022/11/06 15:23:01;;;;;;;;;;;10.80;82.80;;;;;;4882697;28;86342;-74
2022/11/06 15:25:27;;;;;;;4.82;2.08;;;10.90;82.90;;;;;;4884548;28;86273;-73
2022/11/06 15:28:16;;;;;;;4.20;2.10;;;10.90;82.70;;;;;;4881571;28;87223;-74
2022/11/06 15:30:53;;;;;;;4.75;2.83;;;10.90;82.50;;;;;;4867693;28;87463;-74
2022/11/06 15:33:30;;;;;;;5.95;3.17;;;10.90;82.50;;;;;;4887311;28;87812;-73
2022/11/06 15:36:02;;;;;;;5.05;2.78;;;10.90;82.80;;;;;;4881014;28;86328;-74
2022/11/06 15:38:37;;;;;;;5.93;3.20;;;10.80;83.30;;;;;;4882201;28;87298;-74
2022/11/06 15:41:06;;;;;;;10.00;2.80;;;10.70;83.30;;;;;;4880627;28;86989;-74
2022/11/06 15:43:34;;;;;;;4.78;2.88;;;10.70;83.60;;;;;;4879961;28;86506;-74
2022/11/06 15:46:03;;;;;;;8.55;4.47;;;10.60;83.70;;;;;;4879973;28;86959;-74
2022/11/06 15:48:28;;;;;;;7.53;4.78;;;10.60;83.80;;;;;;4880318;28;87311;-74
2022/11/06 15:50:54;;;;;;;6.72;3.22;;;10.50;84.20;;;;;;4881323;28;87460;-73
2022/11/06 15:53:22;;;;;;;7.13;3.70;;;10.40;84.60;;;;;;4874674;28;86377;-73
2022/11/06 15:56:00;;;;;;;6.53;3.42;;;10.30;84.90;;;;;;4883241;28;87017;-74
2022/11/06 15:58:26;;;;;;;8.02;4.47;;;10.30;85.20;;;;;;4870986;28;88246;-73
2022/11/06 16:00:51;;;;;;;6.93;3.30;;;10.20;85.50;;;;;;4877357;28;87026;-74
2022/11/06 16:03:20;;;;;;;6.22;3.38;;;10.10;85.80;;;;;;4875732;28;87851;-76
2022/11/06 16:05:47;;;;;;;7.78;4.78;;;10.00;86.00;;;;;;4880764;28;86639;-74
2022/11/06 16:08:14;;;;;;;8.77;4.40;;;9.90;86.70;;;;;;4878946;28;87243;-74
2022/11/06 16:10:47;;;;;;;10.02;4.10;;;9.70;87.90;;;;;;4881250;28;88491;-73
2022/11/06 16:13:15;;;;;;;7.13;3.45;;;9.60;88.30;;;;;;4876838;28;86292;-73
2022/11/06 16:15:44;;;;;;;6.88;3.42;;;9.60;88.60;;;;;;4879037;28;85494;-73
2022/11/06 16:18:28;;;;;;;7.22;3.65;;;9.50;89.30;;;;;;4881986;28;86683;-74
2022/11/06 16:21:11;;;;;;;6.47;3.38;;;9.40;90.40;;;;;;4878684;28;86331;-73
2022/11/06 16:23:37;;;;;;;6.35;3.17;;;9.30;90.30;;;;;;4880765;28;88257;-73
2022/11/06 16:26:08;;;;;;;10.18;3.30;;;9.20;90.70;;;;;;4880055;28;87080;-73
2022/11/06 16:28:34;;;;;;;7.65;3.28;;;9.20;90.90;;;;;;4877845;28;86918;-73
2022/11/06 16:31:14;;;;;;;7.53;3.65;;;9.10;91.30;;;;;;4879007;28;87167;-73
2022/11/06 16:33:51;;;;;;;6.93;3.40;;;9.10;91.40;;;;;;4876187;28;86552;-74
2022/11/06 16:36:17;;;;;;;7.53;3.83;;;9.10;91.60;;;;;;4875381;28;87045;-73
2022/11/06 16:38:44;;;;;;;8.48;4.32;;;8.90;92.00;;;;;;4879339;28;87164;-73
2022/11/06 16:41:11;;;;;;;8.98;4.10;;;8.80;92.20;;;;;;4878935;28;87002;-73
2022/11/06 16:43:37;;;;;;;8.10;3.95;;;8.70;92.70;;;;;;4880482;28;86813;-74
2022/11/06 16:46:06;;;;;;;8.18;4.25;;;8.70;92.90;;;;;;4884123;28;87114;-73
2022/11/06 16:48:43;;;;;;;9.52;4.43;;;8.70;92.70;;;;;;4876256;28;87471;-73
2022/11/06 16:51:13;;;;;;;7.60;3.92;;;8.80;92.90;;;;;;4875186;28;87782;-73
2022/11/06 16:53:53;;;;;;;9.27;3.83;;;8.70;92.90;;;;;;4873137;28;87337;-74
2022/11/06 16:56:30;;;;;;;10.95;4.50;;;8.80;93.10;;;;;;4879658;28;87117;-73
2022/11/06 16:59:02;;;;;;;11.90;5.85;;;8.70;93.20;;;;;;4870147;28;86706;-73
2022/11/06 17:01:36;;;;;;;12.57;5.60;;;8.70;93.40;;;;;;4875928;28;86990;-73
2022/11/06 17:04:02;;;;;;;9.15;4.85;;;8.70;93.80;;;;;;4878843;28;87111;-74
2022/11/06 17:06:31;;;;;;;10.90;4.50;;;8.60;93.60;;;;;;4876291;28;86028;-73
2022/11/06 17:09:03;;;;;;;9.20;4.95;;;8.60;93.70;;;;;;4881210;28;86774;-73
2022/11/06 17:11:29;;;;;;;9.88;4.20;;;8.60;93.60;;;;;;4879697;28;86935;-73
2022/11/06 17:13:54;;;;;;;9.88;4.90;;;8.70;93.80;;;;;;4883594;28;87473;-73
2022/11/06 17:16:24;;;;;;;9.70;4.75;;;8.80;93.90;;;;;;4876430;28;86314;-73
2022/11/06 17:18:50;;;;;;;9.43;4.88;;;8.90;94.00;;;;;;4879016;28;86901;-73
2022/11/06 17:21:26;;;;;;;9.98;5.10;;;8.90;94.20;;;;;;4877412;28;86936;-74
2022/11/06 17:23:52;;;;;;;9.02;4.75;;;8.90;94.20;;;;;;4880921;28;88332;-73
2022/11/06 17:26:18;;;;;;;8.43;4.38;;;9.00;94.30;;;;;;4878665;28;86890;-73
2022/11/06 17:28:43;;;;;;;9.20;4.43;;;9.00;94.30;;;;;;4881879;28;87224;-73
2022/11/06 17:31:11;;;;;;;8.15;4.60;;;9.10;94.40;;;;;;4881638;28;86922;-73
2022/11/06 17:33:37;;;;;;;7.25;3.88;;;9.10;94.30;;;;;;4877287;28;86733;-73
2022/11/06 17:36:04;;;;;;;8.85;4.30;;;9.10;94.30;;;;;;4872979;28;88270;-73
2022/11/06 17:38:29;;;;;;;8.35;4.25;;;9.10;94.40;;;;;;4871606;28;88016;-74
2022/11/06 17:40:55;;;;;;;8.30;4.00;;;9.10;94.40;;;;;;4877416;28;87379;-74
2022/11/06 17:43:21;;;;;;;9.55;4.35;;;9.10;94.40;;;;;;4881766;28;86460;-74
2022/11/06 17:45:48;;;;;;;8.38;4.18;;;9.10;94.60;;;;;;4875821;28;88626;-74
2022/11/06 17:48:15;;;;;;;8.95;4.00;;;9.20;94.50;;;;;;4878454;28;86984;-73
2022/11/06 17:53:25;;;;;;;9.05;4.07;;;9.20;94.50;;;;;;4884050;28;86363;-73
2022/11/06 17:55:51;;;;;;;10.95;4.70;;;9.20;94.10;;;;;;4880784;28;85640;-74
2022/11/06 17:58:17;;;;;;;9.18;4.55;;;9.20;93.90;;;;;;4880375;28;87340;-74
2022/11/06 18:00:42;;;;;;;8.13;4.60;;;9.30;93.90;;;;;;4881702;28;86960;-73
2022/11/06 18:03:16;;;;;;;8.75;4.40;;;9.30;94.00;;;;;;4876180;28;87224;-73
2022/11/06 18:05:42;;;;;;;8.10;4.53;;;9.30;94.00;;;;;;4873266;28;87096;-73
2022/11/06 18:08:11;;;;;;;9.35;4.47;;;9.30;94.00;;;;;;4880744;28;87188;-74
2022/11/06 18:10:38;;;;;;;8.90;4.70;;;9.30;93.90;;;;;;4878108;28;87050;-74
2022/11/06 18:13:04;;;;;;;10.35;5.50;;;9.30;93.70;;;;;;4879853;28;86305;-74
2022/11/06 18:15:33;;;;;;;9.25;4.88;;;9.30;93.90;;;;;;4883000;28;86815;-74
2022/11/06 18:17:59;;;;;;;9.30;4.40;;;9.30;93.90;;;;;;4880128;28;86556;-74
2022/11/06 18:20:24;;;;;;;8.10;4.43;;;9.20;94.00;;;;;;4881390;28;87087;-74
2022/11/06 18:22:50;;;;;;;9.00;4.55;;;9.30;94.10;;;;;;4879236;28;86923;-74